Time;durP1;ratioP1;P1;durP2;ratioP2;P2;SDS_P1;SDS_P2;PMS_P1;PMS_P2;Temp;Humidity;BMP_temperature;BMP_pressure;BME280_temperature;BME280_humidity;BME280_pressure;Samples;Min_cycle;Max_cycle;Signal;HPM_P1;HPM_P2
2021/07/27 00:00:12;;;;;;;3.97;1.50;;;19.40;73.30;;;;;;5142380;27;27464;-57
2021/07/27 00:03:01;;;;;;;7.30;1.63;;;19.40;73.30;;;;;;5169491;27;27479;-44
2021/07/27 00:05:46;;;;;;;7.32;1.40;;;19.40;73.30;;;;;;5173711;27;27380;-55
2021/07/27 00:08:31;;;;;;;3.90;1.33;;;19.30;73.30;;;;;;5188982;27;27439;-56
2021/07/27 00:11:16;;;;;;;2.17;1.45;;;19.30;73.30;;;;;;5173666;27;27403;-48
2021/07/27 00:14:01;;;;;;;5.15;1.48;;;19.30;73.30;;;;;;5169587;27;26916;-57
2021/07/27 00:16:45;;;;;;;4.18;1.70;;;19.30;73.30;;;;;;5172998;27;27394;-57
2021/07/27 00:19:31;;;;;;;3.45;1.58;;;19.20;73.30;;;;;;5154718;27;27314;-57
2021/07/27 00:22:16;;;;;;;6.90;1.95;;;19.20;73.30;;;;;;5154523;27;27339;-57
2021/07/27 00:25:01;;;;;;;9.93;1.80;;;19.20;73.50;;;;;;5158071;27;27400;-57
2021/07/27 00:27:46;;;;;;;11.70;1.70;;;19.20;73.40;;;;;;5156254;27;27434;-57
2021/07/27 00:30:31;;;;;;;5.50;1.88;;;19.10;73.30;;;;;;5169709;27;27366;-55
2021/07/27 00:33:15;;;;;;;6.57;1.77;;;19.10;73.30;;;;;;5154456;27;27402;-57
2021/07/27 00:36:03;;;;;;;6.78;1.98;;;19.10;73.30;;;;;;5169204;27;27278;-58
2021/07/27 00:38:47;;;;;;;4.82;1.50;;;19.10;73.20;;;;;;5169017;27;27417;-55
2021/07/27 00:41:34;;;;;;;4.53;1.45;;;19.00;73.20;;;;;;5139812;27;27313;-57
2021/07/27 00:44:18;;;;;;;6.40;1.52;;;19.00;73.20;;;;;;5158056;27;27359;-57
2021/07/27 00:47:03;;;;;;;4.13;1.90;;;19.00;73.20;;;;;;5187391;27;27332;-57
2021/07/27 00:49:48;;;;;;;8.55;1.65;;;19.00;73.20;;;;;;5157359;27;27377;-57
2021/07/27 00:52:33;;;;;;;6.53;2.17;;;18.90;73.00;;;;;;5154321;27;27337;-51
2021/07/27 00:55:18;;;;;;;9.52;2.17;;;18.90;73.10;;;;;;5156050;27;27410;-56
2021/07/27 00:58:03;;;;;;;12.43;1.70;;;18.90;73.20;;;;;;5172421;27;27398;-57
2021/07/27 01:00:48;;;;;;;3.60;1.75;;;18.80;73.10;;;;;;5154328;27;27377;-58
2021/07/27 01:03:32;;;;;;;5.10;1.88;;;18.80;73.30;;;;;;5153586;27;27373;-56
2021/07/27 01:06:17;;;;;;;8.23;1.85;;;18.80;73.40;;;;;;5172315;27;27346;-57
2021/07/27 01:09:02;;;;;;;7.70;1.70;;;18.70;73.40;;;;;;5172116;27;27335;-56
2021/07/27 01:11:46;;;;;;;6.35;2.17;;;18.70;73.50;;;;;;5157368;27;27327;-56
2021/07/27 01:14:31;;;;;;;6.78;2.00;;;18.70;73.40;;;;;;5153715;27;27397;-58
2021/07/27 01:17:16;;;;;;;3.78;1.83;;;18.70;73.40;;;;;;5172458;27;27415;-58
2021/07/27 01:44:09;;;;;;;5.82;2.35;;;18.40;73.50;;;;;;5187467;27;26917;-56
2021/07/27 01:46:54;;;;;;;6.50;2.17;;;18.40;73.50;;;;;;5168300;27;27496;-57
2021/07/27 01:49:40;;;;;;;5.93;2.20;;;18.40;73.50;;;;;;5141365;27;28000;-55
2021/07/27 01:52:25;;;;;;;5.13;2.17;;;18.40;73.60;;;;;;5139221;27;27378;-57
2021/07/27 01:55:10;;;;;;;6.13;2.45;;;18.30;73.60;;;;;;5153160;27;27425;-57
2021/07/27 01:57:55;;;;;;;9.00;2.10;;;18.30;73.60;;;;;;5173811;27;27436;-58
2021/07/27 02:00:40;;;;;;;7.82;2.15;;;18.30;73.70;;;;;;5171638;27;27327;-58
2021/07/27 02:03:25;;;;;;;7.70;2.45;;;18.30;73.70;;;;;;5156532;27;27515;-57
2021/07/27 02:06:12;;;;;;;7.20;2.47;;;18.30;73.70;;;;;;5175425;27;27464;-46
2021/07/27 02:09:00;;;;;;;11.98;2.58;;;18.20;73.50;;;;;;5157190;27;27401;-56
2021/07/27 02:11:47;;;;;;;2.88;2.10;;;18.20;73.50;;;;;;5175920;27;27969;-56
2021/07/27 02:17:36;;;;;;;9.48;2.20;;;18.10;73.60;;;;;;5191037;27;27402;-55
2021/07/27 02:20:20;;;;;;;7.07;2.42;;;18.10;73.60;;;;;;5160195;27;27500;-57
2021/07/27 02:23:05;;;;;;;10.65;2.17;;;18.10;73.60;;;;;;5189962;27;27411;-57
2021/07/27 02:25:49;;;;;;;6.30;2.22;;;18.10;73.60;;;;;;5156108;27;27324;-48
2021/07/27 02:28:34;;;;;;;9.23;2.63;;;18.10;73.90;;;;;;5173701;27;27439;-56
2021/07/27 02:31:28;;;;;;;6.40;2.22;;;18.10;73.90;;;;;;5157197;27;27355;-55
2021/07/27 02:34:12;;;;;;;8.75;1.95;;;18.00;73.90;;;;;;5152269;27;27328;-57
2021/07/27 02:36:57;;;;;;;7.97;2.08;;;18.00;74.10;;;;;;5171392;27;27406;-48
2021/07/27 02:39:42;;;;;;;9.18;2.83;;;18.00;74.10;;;;;;5187212;27;26872;-56
2021/07/27 02:42:29;;;;;;;6.03;2.63;;;18.00;74.00;;;;;;5159562;27;27673;-47
2021/07/27 02:45:14;;;;;;;3.70;2.63;;;18.00;74.10;;;;;;5190854;27;27397;-56
2021/07/27 02:47:59;;;;;;;5.78;2.63;;;18.00;74.10;;;;;;5145723;27;27339;-57
2021/07/27 02:50:43;;;;;;;9.63;2.30;;;17.90;74.00;;;;;;5174628;27;27345;-57
2021/07/27 02:53:31;;;;;;;6.82;2.53;;;17.90;73.90;;;;;;5189856;27;27400;-56
2021/07/27 02:56:17;;;;;;;11.75;2.78;;;17.90;74.00;;;;;;5130573;27;27458;-60
2021/07/27 02:59:01;;;;;;;9.43;2.45;;;17.90;74.10;;;;;;5167045;27;27415;-57
2021/07/27 03:01:46;;;;;;;7.78;3.03;;;17.80;74.00;;;;;;5156467;27;27451;-47
2021/07/27 03:04:31;;;;;;;7.80;2.70;;;17.80;74.10;;;;;;5174407;27;27484;-55
2021/07/27 03:07:18;;;;;;;8.07;3.03;;;17.80;74.20;;;;;;5141672;27;27938;-57
2021/07/27 03:10:22;;;;;;;6.47;2.58;;;17.80;74.30;;;;;;5187591;27;27662;-57
2021/07/27 03:13:08;;;;;;;4.15;2.92;;;17.80;74.60;;;;;;5167128;27;27477;-58
2021/07/27 03:15:54;;;;;;;4.30;2.85;;;17.80;74.50;;;;;;5174200;27;27396;-48
2021/07/27 03:18:38;;;;;;;11.13;2.83;;;17.70;74.50;;;;;;5155909;27;27496;-56
2021/07/27 03:21:25;;;;;;;6.93;2.28;;;17.70;74.40;;;;;;5159215;27;27509;-51
2021/07/27 03:24:10;;;;;;;9.68;2.83;;;17.70;74.40;;;;;;5141572;27;27434;-57
2021/07/27 03:26:55;;;;;;;8.73;2.53;;;17.70;74.50;;;;;;5172881;27;27453;-55
2021/07/27 03:29:39;;;;;;;7.72;2.78;;;17.70;74.50;;;;;;5170001;27;27460;-57
2021/07/27 03:32:24;;;;;;;5.22;2.95;;;17.70;74.40;;;;;;5158686;27;27461;-56
2021/07/27 03:35:12;;;;;;;7.43;2.90;;;17.70;74.40;;;;;;5158608;27;27496;-58
2021/07/27 03:37:57;;;;;;;5.75;2.55;;;17.70;74.50;;;;;;5170422;27;27380;-57
2021/07/27 03:40:41;;;;;;;4.28;3.08;;;17.60;74.50;;;;;;5170035;27;27378;-46
2021/07/27 03:43:26;;;;;;;5.22;3.20;;;17.60;74.50;;;;;;5141210;27;27434;-46
2021/07/27 03:46:10;;;;;;;10.50;2.90;;;17.60;74.60;;;;;;5159384;27;27428;-50
2021/07/27 03:48:55;;;;;;;3.05;2.72;;;17.60;74.60;;;;;;5170239;27;27355;-56
2021/07/27 03:51:42;;;;;;;6.70;3.00;;;17.60;74.70;;;;;;5158571;27;27340;-57
2021/07/27 03:54:28;;;;;;;4.93;2.50;;;17.60;74.70;;;;;;5155126;27;27316;-57
2021/07/27 03:57:12;;;;;;;4.85;2.88;;;17.60;74.70;;;;;;5158793;27;27339;-56
2021/07/27 03:59:57;;;;;;;8.35;2.90;;;17.50;75.50;;;;;;5173169;27;27413;-57
2021/07/27 04:02:42;;;;;;;4.25;2.88;;;17.50;74.70;;;;;;5154906;27;27375;-55
2021/07/27 04:05:26;;;;;;;7.28;3.00;;;17.50;74.80;;;;;;5140432;27;27374;-46
2021/07/27 04:08:14;;;;;;;5.97;3.50;;;17.50;74.70;;;;;;5158255;27;27438;-57
2021/07/27 04:11:05;;;;;;;6.13;2.60;;;17.50;74.70;;;;;;5158156;27;27407;-56
2021/07/27 04:13:50;;;;;;;6.78;2.92;;;17.50;74.80;;;;;;5172824;27;28037;-57
2021/07/27 04:16:37;;;;;;;8.75;3.13;;;17.50;74.90;;;;;;5154632;27;27516;-58
2021/07/27 04:19:21;;;;;;;9.95;2.50;;;17.50;75.00;;;;;;5172787;27;27377;-57
2021/07/27 04:22:06;;;;;;;3.60;2.22;;;17.50;74.90;;;;;;5153652;27;27433;-57
2021/07/27 04:24:51;;;;;;;7.20;3.03;;;17.50;75.00;;;;;;5169491;27;27412;-57
2021/07/27 04:27:35;;;;;;;5.90;2.95;;;17.50;75.10;;;;;;5187173;27;27431;-57
2021/07/27 04:30:20;;;;;;;6.20;2.55;;;17.50;75.10;;;;;;5172691;27;27481;-49
2021/07/27 04:33:05;;;;;;;7.05;2.92;;;17.50;75.20;;;;;;5169243;27;27407;-56
2021/07/27 04:35:49;;;;;;;9.48;3.10;;;17.50;75.20;;;;;;5145021;27;27429;-56
2021/07/27 04:38:35;;;;;;;3.88;3.00;;;17.50;75.30;;;;;;5172607;27;27464;-56
2021/07/27 04:41:20;;;;;;;5.50;3.03;;;17.50;75.20;;;;;;5154470;27;27431;-56
2021/07/27 04:44:05;;;;;;;10.20;2.78;;;17.50;75.20;;;;;;5171918;27;27454;-57
2021/07/27 04:46:49;;;;;;;2.80;2.47;;;17.50;75.30;;;;;;5154280;27;27431;-56
2021/07/27 04:49:34;;;;;;;4.93;2.58;;;17.50;75.20;;;;;;5172433;27;27410;-57
2021/07/27 04:52:22;;;;;;;4.38;2.58;;;17.50;75.20;;;;;;5154069;27;27406;-55
2021/07/27 04:55:08;;;;;;;3.75;2.92;;;17.60;75.20;;;;;;5158574;27;27417;-57
2021/07/27 04:57:53;;;;;;;4.55;2.80;;;17.60;75.30;;;;;;5171913;27;27388;-57
2021/07/27 05:00:38;;;;;;;7.47;2.80;;;17.60;75.30;;;;;;5171889;27;27355;-57
2021/07/27 05:03:23;;;;;;;8.75;2.78;;;17.60;75.30;;;;;;5154396;27;26907;-57
2021/07/27 05:06:07;;;;;;;5.30;2.40;;;17.70;75.40;;;;;;5147994;27;26967;-44
2021/07/27 05:08:52;;;;;;;6.75;3.10;;;17.70;75.40;;;;;;5154247;27;27832;-56
2021/07/27 05:11:37;;;;;;;4.35;2.80;;;17.70;75.40;;;;;;5171787;27;27402;-48
2021/07/27 05:14:22;;;;;;;8.25;2.90;;;17.70;75.30;;;;;;5172054;27;27338;-47
2021/07/27 05:17:08;;;;;;;4.45;2.75;;;17.70;75.30;;;;;;5187631;27;27315;-57
2021/07/27 05:19:53;;;;;;;10.13;2.72;;;17.70;75.30;;;;;;5187681;27;27304;-58
2021/07/27 05:22:38;;;;;;;4.10;2.72;;;17.70;75.30;;;;;;5168040;27;27405;-57
2021/07/27 05:25:23;;;;;;;4.63;2.90;;;17.80;75.50;;;;;;5186993;27;27556;-56
2021/07/27 05:28:08;;;;;;;5.55;2.92;;;17.80;75.50;;;;;;5170769;27;27615;-57
2021/07/27 05:30:53;;;;;;;6.97;2.85;;;17.80;75.50;;;;;;5187337;27;27351;-55
2021/07/27 05:33:38;;;;;;;7.07;2.97;;;17.80;75.50;;;;;;5187245;27;27419;-57
2021/07/27 05:36:22;;;;;;;8.30;3.88;;;17.90;75.60;;;;;;5155550;27;27441;-58
2021/07/27 05:39:07;;;;;;;3.75;2.92;;;17.90;75.70;;;;;;5154443;27;27344;-57
2021/07/27 05:41:52;;;;;;;7.53;2.72;;;17.90;75.80;;;;;;5172703;27;27401;-57
2021/07/27 05:44:37;;;;;;;6.32;2.85;;;18.00;76.00;;;;;;5169572;27;27623;-55
2021/07/27 05:47:22;;;;;;;10.15;3.30;;;18.00;76.00;;;;;;5188314;27;27319;-46
2021/07/27 05:50:09;;;;;;;4.47;3.15;;;18.10;76.20;;;;;;5172749;27;27378;-48
2021/07/27 05:52:57;;;;;;;6.40;3.13;;;18.10;76.30;;;;;;5187616;27;27385;-56
2021/07/27 05:55:42;;;;;;;7.22;3.15;;;18.20;76.50;;;;;;5172298;27;27509;-55
2021/07/27 05:58:27;;;;;;;4.15;3.28;;;18.30;76.50;;;;;;5157834;27;27482;-45
2021/07/27 06:01:12;;;;;;;3.78;2.88;;;18.40;76.60;;;;;;5157497;27;26939;-57
2021/07/27 06:03:56;;;;;;;6.35;3.45;;;18.50;76.80;;;;;;5153291;27;27524;-57
2021/07/27 06:06:41;;;;;;;7.25;3.30;;;18.60;76.90;;;;;;5125064;27;27429;-57
2021/07/27 06:09:26;;;;;;;7.38;2.90;;;18.70;77.10;;;;;;5157655;27;26946;-55
2021/07/27 06:12:12;;;;;;;9.75;3.50;;;19.00;77.10;;;;;;5183980;27;27460;-57
2021/07/27 06:14:57;;;;;;;4.30;3.25;;;19.20;77.10;;;;;;5187523;27;27449;-56
2021/07/27 06:17:42;;;;;;;4.40;3.63;;;19.60;76.30;;;;;;5172068;27;27468;-58
2021/07/27 06:20:27;;;;;;;5.53;3.67;;;20.00;75.70;;;;;;5156954;27;27432;-58
2021/07/27 06:23:11;;;;;;;4.85;3.70;;;20.30;75.20;;;;;;5138805;27;27620;-57
2021/07/27 06:25:56;;;;;;;4.93;3.38;;;20.50;74.60;;;;;;5171515;27;27878;-48
2021/07/27 06:28:41;;;;;;;8.98;4.30;;;20.80;74.20;;;;;;5153687;27;27461;-46
2021/07/27 06:31:25;;;;;;;3.63;3.17;;;21.00;73.80;;;;;;5153589;27;27499;-57
2021/07/27 06:34:10;;;;;;;4.50;3.35;;;21.10;73.30;;;;;;5127029;27;27467;-57
2021/07/27 06:36:55;;;;;;;4.95;3.30;;;21.30;73.30;;;;;;5163881;27;27977;-57
2021/07/27 06:39:40;;;;;;;10.65;3.50;;;21.50;72.90;;;;;;5171857;27;27557;-57
2021/07/27 06:42:25;;;;;;;6.13;3.65;;;21.70;72.60;;;;;;5172201;27;27639;-55
2021/07/27 06:45:11;;;;;;;8.27;3.33;;;21.90;72.40;;;;;;5159863;27;27498;-57
2021/07/27 06:47:56;;;;;;;5.70;3.83;;;22.10;72.10;;;;;;5190908;27;27456;-58
2021/07/27 06:50:41;;;;;;;6.45;3.58;;;22.40;71.90;;;;;;5145798;27;27466;-57
2021/07/27 06:53:26;;;;;;;6.88;3.90;;;22.70;72.10;;;;;;5190888;27;27417;-58
2021/07/27 06:56:11;;;;;;;4.63;3.72;;;23.10;71.20;;;;;;5158072;27;27452;-58
2021/07/27 06:58:56;;;;;;;7.43;3.80;;;23.60;69.30;;;;;;5174891;27;27434;-51
2021/07/27 07:01:41;;;;;;;6.22;3.50;;;24.00;68.90;;;;;;5190956;27;27429;-58
2021/07/27 07:04:26;;;;;;;7.00;3.47;;;24.40;68.10;;;;;;5190661;27;27445;-57
2021/07/27 07:07:10;;;;;;;7.25;3.97;;;24.90;67.40;;;;;;5160276;27;27404;-58
2021/07/27 07:09:55;;;;;;;4.20;3.70;;;25.20;65.90;;;;;;5156701;27;27389;-59
2021/07/27 07:12:40;;;;;;;6.95;3.67;;;25.60;64.90;;;;;;5171498;27;27463;-56
2021/07/27 07:15:24;;;;;;;11.82;4.28;;;26.00;64.40;;;;;;5174305;27;27409;-59
2021/07/27 07:18:09;;;;;;;3.85;3.45;;;26.40;63.10;;;;;;5156727;27;27309;-59
2021/07/27 07:20:54;;;;;;;6.43;3.50;;;26.90;62.10;;;;;;5190325;27;27408;-58
2021/07/27 07:23:39;;;;;;;4.55;3.30;;;27.30;60.40;;;;;;5159468;27;27385;-59
2021/07/27 07:26:24;;;;;;;4.93;3.47;;;27.80;59.50;;;;;;5145354;27;27655;-56
2021/07/27 07:29:08;;;;;;;6.03;3.70;;;28.30;58.70;;;;;;5171390;27;27361;-58
2021/07/27 07:31:53;;;;;;;4.90;3.67;;;28.80;57.10;;;;;;5171479;27;27829;-58
2021/07/27 07:34:38;;;;;;;4.82;3.40;;;29.20;56.30;;;;;;5170920;27;27304;-59
2021/07/27 07:37:22;;;;;;;5.88;3.28;;;29.50;55.70;;;;;;5159651;27;27344;-57
2021/07/27 07:40:07;;;;;;;5.65;3.67;;;29.80;54.90;;;;;;5174399;27;26949;-58
2021/07/27 07:42:52;;;;;;;4.65;3.80;;;29.90;54.70;;;;;;5157400;27;27409;-59
2021/07/27 07:45:37;;;;;;;4.05;3.50;;;30.10;54.40;;;;;;5126828;27;27312;-58
2021/07/27 07:48:22;;;;;;;6.85;3.42;;;30.30;53.90;;;;;;5174347;27;27332;-58
2021/07/27 07:51:07;;;;;;;5.60;3.60;;;30.60;53.70;;;;;;5141601;27;27324;-58
2021/07/27 07:53:51;;;;;;;6.95;3.47;;;31.00;53.30;;;;;;5155722;27;27319;-59
2021/07/27 07:56:36;;;;;;;5.18;3.60;;;31.60;52.70;;;;;;5170809;27;27397;-59
2021/07/27 07:59:20;;;;;;;4.47;3.20;;;32.10;51.70;;;;;;5171006;27;27457;-59
2021/07/27 08:02:05;;;;;;;3.83;3.42;;;32.40;50.20;;;;;;5189566;27;27414;-58
2021/07/27 08:04:50;;;;;;;7.00;3.67;;;32.60;49.70;;;;;;5170315;27;27443;-58
2021/07/27 08:07:34;;;;;;;7.00;4.00;;;32.90;49.60;;;;;;5155541;27;27473;-59
2021/07/27 08:10:19;;;;;;;4.07;3.45;;;33.00;48.80;;;;;;5156080;27;27412;-53
2021/07/27 08:13:04;;;;;;;5.88;3.33;;;33.00;48.20;;;;;;5159179;27;27528;-58
2021/07/27 08:15:49;;;;;;;13.10;3.97;;;32.90;48.30;;;;;;5141280;27;27470;-58
2021/07/27 08:18:34;;;;;;;6.57;3.47;;;33.10;48.30;;;;;;5173552;27;27495;-58
2021/07/27 08:21:23;;;;;;;7.35;3.22;;;33.40;48.20;;;;;;5173909;27;27485;-57
2021/07/27 08:24:08;;;;;;;4.68;3.17;;;33.60;47.70;;;;;;5155114;27;27326;-57
2021/07/27 08:26:52;;;;;;;4.05;3.40;;;33.80;47.50;;;;;;5172961;27;27643;-58
2021/07/27 08:29:37;;;;;;;4.60;3.30;;;34.10;46.80;;;;;;5158836;27;27332;-59
2021/07/27 08:32:22;;;;;;;4.10;3.70;;;34.20;46.30;;;;;;5158755;27;27388;-56
2021/07/27 08:35:09;;;;;;;6.40;4.15;;;34.30;46.40;;;;;;5173075;27;27389;-57
2021/07/27 08:37:54;;;;;;;5.85;3.58;;;34.50;45.90;;;;;;5154934;27;27386;-58
2021/07/27 08:40:39;;;;;;;8.13;3.50;;;34.70;45.70;;;;;;5140207;27;27410;-57
2021/07/27 08:43:24;;;;;;;4.05;3.50;;;34.90;44.40;;;;;;5155858;27;27457;-51
2021/07/27 08:46:09;;;;;;;7.18;3.85;;;35.00;45.10;;;;;;5158396;27;27420;-48
2021/07/27 08:48:53;;;;;;;5.30;3.45;;;35.30;45.10;;;;;;5155383;27;27392;-59
2021/07/27 08:51:38;;;;;;;6.80;3.75;;;35.40;44.50;;;;;;5188984;27;27593;-58
2021/07/27 08:54:23;;;;;;;4.43;3.45;;;35.50;43.90;;;;;;5173205;27;27347;-58
2021/07/27 08:57:14;;;;;;;6.43;3.80;;;35.60;43.00;;;;;;5188548;27;27330;-58
2021/07/27 08:59:59;;;;;;;3.95;3.30;;;35.60;43.50;;;;;;5188698;27;27494;-58
2021/07/27 09:02:43;;;;;;;8.38;3.75;;;35.70;43.50;;;;;;5172400;27;27583;-59
2021/07/27 09:05:31;;;;;;;4.57;3.45;;;35.90;43.60;;;;;;5172901;27;27468;-57
2021/07/27 09:08:15;;;;;;;5.95;3.78;;;36.30;43.40;;;;;;5154200;27;27490;-57
2021/07/27 09:11:01;;;;;;;3.83;3.38;;;36.70;42.70;;;;;;5172512;27;27852;-57
2021/07/27 09:13:55;;;;;;;5.82;3.47;;;37.10;41.80;;;;;;5140270;27;27461;-59
2021/07/27 09:16:47;;;;;;;5.85;3.30;;;37.50;41.50;;;;;;5172561;27;27429;-59
2021/07/27 09:19:50;;;;;;;8.73;3.47;;;37.90;40.80;;;;;;5154626;27;27472;-59
2021/07/27 09:22:44;;;;;;;3.80;3.40;;;38.20;39.70;;;;;;5188113;27;27355;-59
2021/07/27 09:25:30;;;;;;;5.70;3.03;;;38.60;39.40;;;;;;5188089;27;27364;-56
2021/07/27 09:28:15;;;;;;;5.78;3.30;;;39.10;38.50;;;;;;5155231;27;27342;-58
2021/07/27 09:31:00;;;;;;;4.85;3.35;;;39.50;38.60;;;;;;5172728;27;27405;-58
2021/07/27 09:33:45;;;;;;;4.32;3.72;;;40.00;37.30;;;;;;5187978;27;27334;-59
2021/07/27 09:36:30;;;;;;;3.65;3.35;;;40.30;36.90;;;;;;5169385;27;27378;-56
2021/07/27 09:39:15;;;;;;;4.30;3.50;;;40.70;37.30;;;;;;5188583;27;27400;-59
2021/07/27 09:42:16;;;;;;;3.92;3.55;;;41.10;36.60;;;;;;5158139;27;27389;-57
2021/07/27 09:45:03;;;;;;;4.40;3.15;;;41.50;35.50;;;;;;5188325;27;27346;-59
2021/07/27 09:47:48;;;;;;;4.50;3.28;;;41.80;34.10;;;;;;5140291;27;27333;-59
2021/07/27 09:50:33;;;;;;;5.95;3.30;;;42.30;34.70;;;;;;5154223;27;27391;-59
2021/07/27 09:53:18;;;;;;;4.95;3.00;;;42.70;33.50;;;;;;5188016;27;27349;-59
2021/07/27 09:56:03;;;;;;;3.80;2.88;;;43.10;32.70;;;;;;5154677;27;27833;-59
2021/07/27 09:58:48;;;;;;;3.40;3.10;;;43.40;32.80;;;;;;5187743;27;27522;-57
2021/07/27 10:01:33;;;;;;;4.97;3.00;;;43.80;32.40;;;;;;5157388;27;27397;-59
2021/07/27 10:04:34;;;;;;;4.40;3.17;;;44.00;31.10;;;;;;5139848;27;27337;-58
2021/07/27 10:07:29;;;;;;;3.13;2.85;;;44.00;30.00;;;;;;5173407;27;27476;-59
2021/07/27 10:10:14;;;;;;;3.72;2.95;;;43.50;30.20;;;;;;5168747;27;27417;-58
2021/07/27 10:13:10;;;;;;;4.57;3.22;;;42.90;30.50;;;;;;5157552;27;27415;-59
2021/07/27 10:15:55;;;;;;;3.65;3.35;;;42.20;31.40;;;;;;5172030;27;27415;-55
2021/07/27 10:18:40;;;;;;;3.35;3.05;;;41.80;32.10;;;;;;5169135;27;27946;-59
2021/07/27 10:21:27;;;;;;;4.30;2.70;;;41.30;32.50;;;;;;5157155;27;27410;-57
2021/07/27 10:24:20;;;;;;;3.10;2.80;;;40.90;33.50;;;;;;5191046;27;27401;-58
2021/07/27 10:27:16;;;;;;;3.17;2.88;;;40.90;33.40;;;;;;5190573;27;27390;-58
2021/07/27 10:30:10;;;;;;;6.28;2.75;;;41.20;33.60;;;;;;5191342;27;27401;-59
2021/07/27 10:32:55;;;;;;;3.28;2.97;;;41.60;33.00;;;;;;5175551;27;27458;-46
2021/07/27 10:35:39;;;;;;;3.60;3.17;;;42.10;31.40;;;;;;5160726;27;27433;-59
2021/07/27 10:38:35;;;;;;;5.03;2.80;;;42.40;30.50;;;;;;5175492;27;27394;-58
2021/07/27 10:41:19;;;;;;;4.95;3.45;;;42.60;31.00;;;;;;5190805;27;27462;-59
2021/07/27 10:44:06;;;;;;;3.90;2.80;;;42.90;30.40;;;;;;5190931;27;27474;-57
2021/07/27 10:46:51;;;;;;;3.13;2.83;;;43.20;30.40;;;;;;5190735;27;27360;-59
2021/07/27 10:49:36;;;;;;;3.50;3.20;;;43.60;29.90;;;;;;5174729;27;27319;-60
2021/07/27 10:52:20;;;;;;;3.67;3.10;;;44.00;30.90;;;;;;5171912;27;27446;-60
2021/07/27 10:55:07;;;;;;;3.95;2.53;;;44.50;29.50;;;;;;5160302;27;27415;-58
2021/07/27 10:57:52;;;;;;;2.95;2.65;;;45.00;30.10;;;;;;5160316;27;27327;-58
2021/07/27 11:00:37;;;;;;;3.08;2.80;;;45.30;29.20;;;;;;5156683;27;27318;-57
2021/07/27 11:03:28;;;;;;;3.47;2.95;;;45.60;29.10;;;;;;5190176;27;27391;-58
2021/07/27 11:06:12;;;;;;;3.53;3.22;;;45.80;29.60;;;;;;5171544;27;27429;-59
2021/07/27 11:09:00;;;;;;;4.38;3.00;;;46.00;27.90;;;;;;5174994;27;27439;-58
2021/07/27 11:11:47;;;;;;;8.38;3.00;;;46.20;28.30;;;;;;5174954;27;27445;-57
2021/07/27 11:14:31;;;;;;;3.63;3.25;;;46.30;27.20;;;;;;5190527;27;27306;-59
2021/07/27 11:17:23;;;;;;;3.63;3.20;;;46.20;27.00;;;;;;5157269;27;27402;-57
2021/07/27 11:20:09;;;;;;;5.05;2.75;;;46.10;27.40;;;;;;5190461;27;27491;-57
2021/07/27 11:23:01;;;;;;;2.88;2.55;;;46.00;27.90;;;;;;5156699;27;27448;-59
2021/07/27 11:25:53;;;;;;;4.18;2.80;;;46.00;26.60;;;;;;5174939;27;27430;-58
2021/07/27 11:28:39;;;;;;;5.03;2.97;;;46.10;27.10;;;;;;5174498;27;27413;-59
2021/07/27 11:31:24;;;;;;;2.92;2.53;;;46.20;27.30;;;;;;5190093;27;27354;-58
2021/07/27 11:34:08;;;;;;;2.40;2.30;;;46.50;27.10;;;;;;5156544;27;27370;-59
2021/07/27 11:36:53;;;;;;;2.50;2.30;;;46.60;27.00;;;;;;5156410;27;27328;-59
2021/07/27 11:39:41;;;;;;;3.97;2.92;;;46.50;27.00;;;;;;5190251;27;27360;-59
2021/07/27 11:42:30;;;;;;;3.45;2.67;;;46.10;26.10;;;;;;5190415;27;27340;-59
2021/07/27 11:45:22;;;;;;;3.72;2.40;;;45.80;27.20;;;;;;5174162;27;27463;-60
2021/07/27 11:48:07;;;;;;;6.10;3.05;;;45.40;27.10;;;;;;5160167;27;27933;-47
2021/07/27 11:50:56;;;;;;;2.83;2.63;;;44.90;27.10;;;;;;5174560;27;27481;-59
2021/07/27 11:53:41;;;;;;;3.22;2.72;;;44.20;27.10;;;;;;5174656;27;27447;-59
2021/07/27 11:56:26;;;;;;;4.10;2.95;;;43.60;27.80;;;;;;5156146;27;27426;-58
2021/07/27 11:59:11;;;;;;;3.28;3.03;;;43.10;28.20;;;;;;5155702;27;27494;-59
2021/07/27 12:01:56;;;;;;;4.00;3.25;;;42.60;28.40;;;;;;5173955;27;27545;-57
2021/07/27 12:04:41;;;;;;;3.72;2.92;;;42.10;28.10;;;;;;5186669;27;27430;-59
2021/07/27 12:07:25;;;;;;;3.63;2.70;;;41.60;29.20;;;;;;5170274;27;27447;-58
2021/07/27 12:10:10;;;;;;;3.50;3.13;;;41.30;29.50;;;;;;5174042;27;28026;-58
2021/07/27 12:12:55;;;;;;;2.80;2.42;;;40.90;30.40;;;;;;5188687;27;27472;-58
2021/07/27 12:15:39;;;;;;;4.53;2.83;;;40.60;30.50;;;;;;5170192;27;27484;-59
2021/07/27 12:18:24;;;;;;;5.90;2.70;;;40.40;30.80;;;;;;5158936;27;27456;-57
2021/07/27 12:21:08;;;;;;;4.30;2.78;;;40.20;31.90;;;;;;5170087;27;27457;-58
2021/07/27 12:23:53;;;;;;;3.10;2.80;;;40.10;31.90;;;;;;5154869;27;27426;-58
2021/07/27 12:26:41;;;;;;;2.92;2.72;;;40.00;31.80;;;;;;5173008;27;27418;-58
2021/07/27 12:29:25;;;;;;;2.72;2.33;;;40.00;31.80;;;;;;5189447;27;27417;-58
2021/07/27 12:32:10;;;;;;;3.40;3.08;;;40.20;31.80;;;;;;5155520;27;27459;-58
2021/07/27 12:34:55;;;;;;;3.05;2.72;;;40.40;31.10;;;;;;5158948;27;27429;-56
2021/07/27 12:37:40;;;;;;;3.08;2.88;;;40.50;31.00;;;;;;5188901;27;27450;-58
2021/07/27 12:40:24;;;;;;;2.90;2.70;;;40.80;30.80;;;;;;5158113;27;27402;-58
2021/07/27 12:43:09;;;;;;;5.85;3.00;;;41.10;30.70;;;;;;5139336;27;27423;-58
2021/07/27 12:45:53;;;;;;;4.50;3.17;;;41.50;29.90;;;;;;5155119;27;27427;-57
2021/07/27 12:48:38;;;;;;;2.95;2.65;;;41.80;29.60;;;;;;5158644;27;26992;-58
2021/07/27 12:51:22;;;;;;;3.38;2.70;;;41.90;28.80;;;;;;5140675;27;27464;-59
2021/07/27 12:54:07;;;;;;;4.90;3.00;;;42.10;29.10;;;;;;5173785;27;27433;-49
2021/07/27 12:56:52;;;;;;;3.15;2.95;;;42.50;29.00;;;;;;5164796;27;27417;-58
2021/07/27 12:59:40;;;;;;;3.85;2.83;;;43.00;29.00;;;;;;5154819;27;27505;-59
2021/07/27 13:02:25;;;;;;;3.40;3.10;;;43.30;29.00;;;;;;5159530;27;27410;-58
2021/07/27 13:05:10;;;;;;;2.78;2.58;;;43.40;28.00;;;;;;5188905;27;27424;-58
2021/07/27 13:07:55;;;;;;;3.90;2.80;;;43.60;28.60;;;;;;5156773;27;27499;-58
2021/07/27 13:10:40;;;;;;;3.20;2.90;;;43.30;27.20;;;;;;5155112;27;27445;-57
2021/07/27 13:13:25;;;;;;;3.10;2.80;;;43.00;27.80;;;;;;5169207;27;27414;-57
2021/07/27 13:16:09;;;;;;;3.25;2.95;;;42.50;28.00;;;;;;5188758;27;27390;-47
2021/07/27 13:18:55;;;;;;;3.45;3.00;;;42.00;28.00;;;;;;5164795;27;27489;-55
2021/07/27 13:21:39;;;;;;;2.67;2.47;;;41.60;28.30;;;;;;5188479;27;27437;-57
2021/07/27 13:24:24;;;;;;;6.07;3.20;;;41.20;29.10;;;;;;5172142;27;27506;-58
2021/07/27 13:27:09;;;;;;;3.53;2.80;;;41.00;29.90;;;;;;5187603;27;28026;-58
2021/07/27 13:29:54;;;;;;;3.80;3.28;;;40.90;30.40;;;;;;5172543;27;27438;-58
2021/07/27 13:32:39;;;;;;;3.78;3.47;;;40.60;30.80;;;;;;5157808;27;27407;-55
2021/07/27 13:35:24;;;;;;;3.67;3.38;;;40.40;31.40;;;;;;5156577;27;27497;-58
2021/07/27 13:38:09;;;;;;;4.30;3.15;;;40.20;30.80;;;;;;5162426;27;27475;-47
2021/07/27 13:40:54;;;;;;;3.72;3.35;;;40.10;31.60;;;;;;5172169;27;27512;-58
2021/07/27 13:43:39;;;;;;;4.55;3.38;;;40.00;31.80;;;;;;5168850;27;27457;-54
2021/07/27 13:46:24;;;;;;;3.95;3.08;;;39.90;32.10;;;;;;5172114;27;27399;-58
2021/07/27 13:49:08;;;;;;;4.53;3.20;;;39.70;32.30;;;;;;5157211;27;27425;-58
2021/07/27 13:51:53;;;;;;;4.00;3.38;;;39.60;32.70;;;;;;5187928;27;27450;-57
2021/07/27 13:54:40;;;;;;;4.45;3.28;;;39.50;33.10;;;;;;5175673;27;27470;-57
2021/07/27 13:57:25;;;;;;;3.92;3.55;;;39.30;33.20;;;;;;5175949;27;27454;-57
2021/07/27 14:00:13;;;;;;;4.07;3.47;;;39.20;33.60;;;;;;5185916;27;27403;-55
2021/07/27 14:02:58;;;;;;;3.70;3.28;;;39.10;33.90;;;;;;5149224;27;27340;-57
2021/07/27 14:05:43;;;;;;;3.38;3.00;;;39.00;34.70;;;;;;5172618;27;27389;-56
2021/07/27 14:08:28;;;;;;;5.72;3.55;;;38.90;34.50;;;;;;5175784;27;27414;-57
2021/07/27 14:11:12;;;;;;;6.35;3.90;;;39.00;34.00;;;;;;5176048;27;27341;-56
2021/07/27 14:13:57;;;;;;;4.35;3.45;;;39.00;34.40;;;;;;5175659;27;27395;-57
2021/07/27 14:16:42;;;;;;;5.90;3.58;;;39.10;34.30;;;;;;5176156;27;27386;-47
2021/07/27 14:19:28;;;;;;;5.40;3.42;;;39.40;34.00;;;;;;5191713;27;27352;-57
2021/07/27 14:22:14;;;;;;;4.35;3.60;;;39.60;33.50;;;;;;5191776;27;27954;-57
2021/07/27 14:24:58;;;;;;;4.95;3.20;;;39.90;33.20;;;;;;5191372;27;27395;-57
2021/07/27 14:27:44;;;;;;;4.80;3.22;;;39.90;32.70;;;;;;5190590;27;29010;-57
2021/07/27 14:30:29;;;;;;;6.82;3.53;;;39.90;32.90;;;;;;5175053;27;27327;-57
2021/07/27 14:33:14;;;;;;;4.00;3.60;;;39.80;33.20;;;;;;5157547;27;27941;-56
2021/07/27 14:35:58;;;;;;;4.90;3.78;;;39.70;32.30;;;;;;5157566;27;27312;-57
2021/07/27 14:38:42;;;;;;;3.83;3.53;;;39.40;31.80;;;;;;5172429;27;27406;-57
2021/07/27 14:41:27;;;;;;;4.07;3.72;;;39.30;32.30;;;;;;5175301;27;27339;-58
2021/07/27 14:44:12;;;;;;;3.78;3.47;;;39.20;32.40;;;;;;5190619;27;27855;-57
2021/07/27 14:46:57;;;;;;;4.30;3.90;;;39.20;32.60;;;;;;5133349;27;27371;-57